createdAt,value
2022-09-06T00:00:27.969Z,1017.08
2022-09-06T00:01:27.958Z,1017.11
2022-09-06T00:02:27.988Z,1017.07
2022-09-06T00:03:27.918Z,1017.05
2022-09-06T00:04:27.961Z,1017.03
2022-09-06T00:05:27.899Z,1017.00
2022-09-06T00:06:27.888Z,1016.99
2022-09-06T00:07:27.891Z,1017.00
2022-09-06T00:08:27.983Z,1017.00
2022-09-06T00:09:27.890Z,1016.96
2022-09-06T00:10:27.832Z,1016.96
2022-09-06T00:11:28.024Z,1016.90
2022-09-06T00:12:27.832Z,1016.95
2022-09-06T00:13:27.803Z,1016.94
2022-09-06T00:14:27.790Z,1016.94
2022-09-06T00:15:27.813Z,1016.89
2022-09-06T00:16:30.417Z,1016.90
2022-09-06T00:17:27.760Z,1016.91
2022-09-06T00:18:27.817Z,1016.92
2022-09-06T00:19:34.747Z,1016.90
2022-09-06T00:20:27.696Z,1016.92
2022-09-06T00:21:27.686Z,1016.94
2022-09-06T00:22:27.667Z,1016.91
2022-09-06T00:23:27.674Z,1016.92
2022-09-06T00:24:27.658Z,1016.92
2022-09-06T00:25:27.628Z,1016.94
2022-09-06T00:26:27.629Z,1016.95
2022-09-06T00:27:27.608Z,1016.90
2022-09-06T00:28:27.716Z,1016.95
2022-09-06T00:29:27.588Z,1016.95
2022-09-06T00:30:27.580Z,1016.89
2022-09-06T00:31:27.648Z,1016.91
2022-09-06T00:32:27.566Z,1016.85
2022-09-06T00:33:27.548Z,1016.89
2022-09-06T00:34:27.527Z,1016.83
2022-09-06T00:35:27.506Z,1016.90
2022-09-06T00:36:27.517Z,1016.90
2022-09-06T00:37:27.467Z,1016.86
2022-09-06T00:38:27.587Z,1016.84
2022-09-06T00:39:27.472Z,1016.86
2022-09-06T00:40:27.443Z,1016.87
2022-09-06T00:41:27.439Z,1016.88
2022-09-06T00:42:27.410Z,1016.85
2022-09-06T00:43:27.390Z,1016.89
2022-09-06T00:44:27.389Z,1016.92
2022-09-06T00:45:27.388Z,1016.90
2022-09-06T00:46:27.368Z,1016.89
2022-09-06T00:47:27.339Z,1016.89
2022-09-06T00:48:27.435Z,1016.85
2022-09-06T00:49:27.311Z,1016.88
2022-09-06T00:50:27.297Z,1016.85
2022-09-06T00:51:27.299Z,1016.85
2022-09-06T00:52:27.269Z,1016.83
2022-09-06T00:53:27.257Z,1016.82
2022-09-06T00:54:27.282Z,1016.80
2022-09-06T00:55:27.231Z,1016.80
2022-09-06T00:56:27.231Z,1016.81
2022-09-06T00:57:27.314Z,1016.75
2022-09-06T00:58:27.385Z,1016.84
2022-09-06T00:59:27.224Z,1016.87
2022-09-06T01:00:27.161Z,1016.89
2022-09-06T01:01:27.296Z,1016.89
2022-09-06T01:02:27.289Z,1016.90
2022-09-06T01:03:27.143Z,1016.90
2022-09-06T01:04:27.121Z,1016.87
2022-09-06T01:05:27.099Z,1016.91
2022-09-06T01:06:27.092Z,1016.91
2022-09-06T01:07:27.082Z,1016.88
2022-09-06T01:08:27.236Z,1016.90
2022-09-06T01:09:27.043Z,1016.89
2022-09-06T01:10:27.031Z,1016.89
2022-09-06T01:11:27.009Z,1016.89
2022-09-06T01:12:27.001Z,1016.89
2022-09-06T01:13:27.000Z,1016.88
2022-09-06T01:14:26.974Z,1016.88
2022-09-06T01:15:27.042Z,1016.83
2022-09-06T01:16:26.971Z,1016.87
2022-09-06T01:17:26.951Z,1016.85
2022-09-06T01:18:27.090Z,1016.91
2022-09-06T01:19:26.923Z,1016.82
2022-09-06T01:20:26.903Z,1016.80
2022-09-06T01:21:26.895Z,1016.75
2022-09-06T01:22:26.881Z,1016.75
2022-09-06T01:23:26.854Z,1016.74
2022-09-06T01:24:26.879Z,1016.75
2022-09-06T01:25:26.843Z,1016.76
2022-09-06T01:26:26.883Z,1016.74
2022-09-06T01:27:26.809Z,1016.77
2022-09-06T01:28:26.877Z,1016.78
2022-09-06T01:29:26.774Z,1016.79
2022-09-06T01:30:26.792Z,1016.72
2022-09-06T01:31:26.818Z,1016.75
2022-09-06T01:32:26.753Z,1016.77
2022-09-06T01:33:26.743Z,1016.74
2022-09-06T01:34:26.726Z,1016.73
2022-09-06T01:35:26.723Z,1016.78
2022-09-06T01:36:26.705Z,1016.79
2022-09-06T01:37:26.665Z,1016.79
2022-09-06T01:38:26.741Z,1016.81
2022-09-06T01:39:26.689Z,1016.78
2022-09-06T01:40:26.635Z,1016.76
2022-09-06T01:41:26.653Z,1016.82
2022-09-06T01:42:26.604Z,1016.77
2022-09-06T01:43:26.583Z,1016.78
2022-09-06T01:44:26.648Z,1016.75
2022-09-06T01:45:26.566Z,1016.74
2022-09-06T01:46:26.607Z,1016.77
2022-09-06T01:47:26.555Z,1016.74
2022-09-06T01:48:26.697Z,1016.76
2022-09-06T01:49:26.525Z,1016.75
2022-09-06T01:50:26.506Z,1016.76
2022-09-06T01:51:26.495Z,1016.72
2022-09-06T01:52:26.466Z,1016.73
2022-09-06T01:53:26.457Z,1016.70
2022-09-06T01:54:26.449Z,1016.71
2022-09-06T01:55:26.436Z,1016.72
2022-09-06T01:56:26.445Z,1016.70
2022-09-06T01:57:26.406Z,1016.66
2022-09-06T01:58:26.468Z,1016.69
2022-09-06T01:59:26.381Z,1016.71
2022-09-06T02:00:26.376Z,1016.76
2022-09-06T02:01:26.395Z,1016.76
2022-09-06T02:02:26.427Z,1016.73
2022-09-06T02:03:26.347Z,1016.72
2022-09-06T02:04:26.328Z,1016.72
2022-09-06T02:05:26.308Z,1016.73
2022-09-06T02:06:26.283Z,1016.71
2022-09-06T02:07:26.275Z,1016.73
2022-09-06T02:08:26.334Z,1016.71
2022-09-06T02:09:26.239Z,1016.75
2022-09-06T02:10:26.238Z,1016.73
2022-09-06T02:11:26.208Z,1016.72
2022-09-06T02:12:26.207Z,1016.72
2022-09-06T02:13:26.189Z,1016.73
2022-09-06T02:14:26.232Z,1016.70
2022-09-06T02:15:26.170Z,1016.70
2022-09-06T02:16:26.190Z,1016.68
2022-09-06T02:17:26.140Z,1016.64
2022-09-06T02:18:26.159Z,1016.62
2022-09-06T02:19:26.121Z,1016.64
2022-09-06T02:20:26.109Z,1016.65
2022-09-06T02:21:26.089Z,1016.65
2022-09-06T02:22:26.068Z,1016.63
2022-09-06T02:23:26.048Z,1016.62
2022-09-06T02:24:26.058Z,1016.59
2022-09-06T02:25:26.038Z,1016.59
2022-09-06T02:26:26.018Z,1016.58
2022-09-06T02:27:25.998Z,1016.61
2022-09-06T02:28:26.120Z,1016.58
2022-09-06T02:29:26.038Z,1016.57
2022-09-06T02:30:26.007Z,1016.60
2022-09-06T02:31:26.020Z,1016.60
2022-09-06T02:32:25.949Z,1016.58
2022-09-06T02:33:25.920Z,1016.58
2022-09-06T02:34:25.926Z,1016.58
2022-09-06T02:35:25.910Z,1016.57
2022-09-06T02:36:25.880Z,1016.57
2022-09-06T02:37:25.861Z,1016.56
2022-09-06T02:38:25.888Z,1016.59
2022-09-06T02:39:25.903Z,1016.53
2022-09-06T02:40:25.861Z,1016.51
2022-09-06T02:41:25.870Z,1016.55
2022-09-06T02:42:25.812Z,1016.47
2022-09-06T02:43:25.794Z,1016.45
2022-09-06T02:44:25.790Z,1016.38
2022-09-06T02:45:25.759Z,1016.41
2022-09-06T02:46:25.839Z,1016.40
2022-09-06T02:47:25.752Z,1016.35
2022-09-06T02:48:25.774Z,1016.41
2022-09-06T02:49:25.721Z,1016.32
2022-09-06T02:50:25.711Z,1016.46
2022-09-06T02:51:25.702Z,1016.45
2022-09-06T02:52:25.692Z,1016.40
2022-09-06T02:53:25.662Z,1016.48
2022-09-06T02:54:25.652Z,1016.42
2022-09-06T02:55:25.630Z,1016.47
2022-09-06T02:56:25.629Z,1016.44
2022-09-06T02:57:25.634Z,1016.41
2022-09-06T02:58:25.606Z,1016.42
2022-09-06T02:59:25.602Z,1016.47
2022-09-06T03:00:25.581Z,1016.46
2022-09-06T03:01:25.625Z,1016.50
2022-09-06T03:02:25.606Z,1016.54
2022-09-06T03:03:25.532Z,1016.53
2022-09-06T03:04:25.632Z,1016.58
2022-09-06T03:05:25.514Z,1016.57
2022-09-06T03:06:25.500Z,1016.65
2022-09-06T03:07:25.499Z,1016.62
2022-09-06T03:08:25.523Z,1016.59
2022-09-06T03:09:25.471Z,1016.59
2022-09-06T03:10:25.453Z,1016.57
2022-09-06T03:11:25.434Z,1016.55
2022-09-06T03:12:25.421Z,1016.40
2022-09-06T03:13:25.404Z,1016.51
2022-09-06T03:14:25.396Z,1016.51
2022-09-06T03:15:25.424Z,1016.50
2022-09-06T03:16:25.406Z,1016.52
2022-09-06T03:17:25.382Z,1016.55
2022-09-06T03:18:25.375Z,1016.54
2022-09-06T03:19:25.382Z,1016.50
2022-09-06T03:20:25.323Z,1016.49
2022-09-06T03:21:25.342Z,1016.45
2022-09-06T03:22:25.282Z,1016.45
2022-09-06T03:23:25.276Z,1016.40
2022-09-06T03:24:25.262Z,1016.43
2022-09-06T03:25:25.314Z,1016.41
2022-09-06T03:26:25.265Z,1016.40
2022-09-06T03:27:25.286Z,1016.39
2022-09-06T03:28:25.255Z,1016.44
2022-09-06T03:29:25.215Z,1016.41
2022-09-06T03:30:25.212Z,1016.42
2022-09-06T03:31:25.216Z,1016.41
2022-09-06T03:32:25.176Z,1016.40
2022-09-06T03:33:25.148Z,1016.37
2022-09-06T03:34:25.135Z,1016.38
2022-09-06T03:35:25.123Z,1016.36
2022-09-06T03:36:25.128Z,1016.35
2022-09-06T03:37:25.123Z,1016.41
2022-09-06T03:38:25.128Z,1016.32
2022-09-06T03:39:25.128Z,1016.39
2022-09-06T03:40:25.069Z,1016.29
2022-09-06T03:41:25.054Z,1016.27
2022-09-06T03:42:25.056Z,1016.32
2022-09-06T03:43:25.028Z,1016.23
2022-09-06T03:44:24.996Z,1016.26
2022-09-06T03:45:24.990Z,1016.22
2022-09-06T03:46:25.058Z,1016.23
2022-09-06T03:47:25.034Z,1016.24
2022-09-06T03:48:25.029Z,1016.28
2022-09-06T03:49:24.945Z,1016.24
2022-09-06T03:50:24.976Z,1016.20
2022-09-06T03:51:24.981Z,1016.24
2022-09-06T03:52:24.967Z,1016.17
2022-09-06T03:53:24.885Z,1016.28
2022-09-06T03:54:24.856Z,1016.20
2022-09-06T03:55:24.864Z,1016.23
2022-09-06T03:56:24.886Z,1016.21
2022-09-06T03:57:24.827Z,1016.24
2022-09-06T03:58:24.833Z,1016.20
2022-09-06T03:59:24.917Z,1016.28
2022-09-06T04:00:24.818Z,1016.22
2022-09-06T04:01:24.892Z,1016.22
2022-09-06T04:02:24.888Z,1016.25
2022-09-06T04:03:24.760Z,1016.21
2022-09-06T04:04:24.744Z,1016.21
2022-09-06T04:05:24.749Z,1016.17
2022-09-06T04:06:24.720Z,1016.24
2022-09-06T04:07:24.705Z,1016.21
2022-09-06T04:08:24.698Z,1016.17
2022-09-06T04:09:24.668Z,1016.23
2022-09-06T04:10:24.679Z,1016.27
2022-09-06T04:11:24.658Z,1016.16
2022-09-06T04:12:24.670Z,1016.27
2022-09-06T04:13:24.639Z,1016.29
2022-09-06T04:14:24.598Z,1016.36
2022-09-06T04:15:24.606Z,1016.37
2022-09-06T04:16:24.635Z,1016.37
2022-09-06T04:17:24.577Z,1016.36
2022-09-06T04:18:24.645Z,1016.37
2022-09-06T04:19:24.546Z,1016.31
2022-09-06T04:20:24.538Z,1016.36
2022-09-06T04:21:24.518Z,1016.33
2022-09-06T04:22:24.499Z,1016.37
2022-09-06T04:23:24.510Z,1016.36
2022-09-06T04:24:24.469Z,1016.26
2022-09-06T04:25:24.531Z,1016.30
2022-09-06T04:26:24.451Z,1016.32
2022-09-06T04:27:24.440Z,1016.25
2022-09-06T04:28:24.438Z,1016.24
2022-09-06T04:29:24.410Z,1016.22
2022-09-06T04:30:24.471Z,1016.20
2022-09-06T04:31:24.429Z,1016.21
2022-09-06T04:32:24.368Z,1016.22
2022-09-06T04:33:24.359Z,1016.18
2022-09-06T04:34:24.379Z,1016.21
2022-09-06T04:35:24.339Z,1016.14
2022-09-06T04:36:24.419Z,1016.18
2022-09-06T04:37:24.337Z,1016.10
2022-09-06T04:38:24.311Z,1016.11
2022-09-06T04:39:24.362Z,1016.20
2022-09-06T04:40:24.330Z,1016.15
2022-09-06T04:41:24.262Z,1016.17
2022-09-06T04:42:24.252Z,1016.19
2022-09-06T04:43:24.247Z,1016.16
2022-09-06T04:44:25.086Z,1016.21
2022-09-06T04:45:24.242Z,1016.17
2022-09-06T04:46:24.189Z,1016.15
2022-09-06T04:47:24.204Z,1016.21
2022-09-06T04:48:24.263Z,1016.20
2022-09-06T04:49:24.171Z,1016.14
2022-09-06T04:50:24.131Z,1016.18
2022-09-06T04:51:24.132Z,1016.19
2022-09-06T04:52:27.052Z,1016.14
2022-09-06T04:53:25.092Z,1016.18
2022-09-06T04:54:24.112Z,1016.19
2022-09-06T04:55:24.093Z,1016.15
2022-09-06T04:56:24.133Z,1016.16
2022-09-06T04:57:24.131Z,1016.11
2022-09-06T04:58:24.033Z,1016.13
2022-09-06T04:59:24.027Z,1016.13
2022-09-06T05:00:24.046Z,1016.11
2022-09-06T05:01:24.195Z,1016.12
2022-09-06T05:02:24.044Z,1016.08
2022-09-06T05:03:23.962Z,1016.06
2022-09-06T05:04:23.949Z,1016.07
2022-09-06T05:05:23.944Z,1016.05
2022-09-06T05:06:23.919Z,1016.07
2022-09-06T05:07:23.933Z,1016.05
2022-09-06T05:08:23.944Z,1016.07
2022-09-06T05:09:23.881Z,1016.02
2022-09-06T05:10:23.893Z,1015.99
2022-09-06T05:11:23.886Z,1015.93
2022-09-06T05:12:23.855Z,1015.89
2022-09-06T05:13:23.843Z,1015.94
2022-09-06T05:14:23.813Z,1015.95
2022-09-06T05:15:23.805Z,1015.98
2022-09-06T05:16:23.851Z,1015.95
2022-09-06T05:17:23.783Z,1015.95
2022-09-06T05:18:23.774Z,1015.94
2022-09-06T05:19:23.766Z,1015.93
2022-09-06T05:20:23.752Z,1015.88
2022-09-06T05:21:23.744Z,1015.98
2022-09-06T05:22:23.716Z,1015.94
2022-09-06T05:23:23.716Z,1015.96
2022-09-06T05:24:23.694Z,1015.97
2022-09-06T05:25:23.722Z,1015.99
2022-09-06T05:26:23.664Z,1016.02
2022-09-06T05:27:23.679Z,1016.05
2022-09-06T05:28:23.676Z,1016.01
2022-09-06T05:29:25.602Z,1016.00
2022-09-06T05:30:24.594Z,1016.01
2022-09-06T05:31:23.718Z,1015.95
2022-09-06T05:32:23.576Z,1015.90
2022-09-06T05:33:23.567Z,1015.93
2022-09-06T05:34:23.555Z,1015.95
2022-09-06T05:35:23.580Z,1015.89
2022-09-06T05:36:23.587Z,1015.88
2022-09-06T05:37:23.526Z,1015.90
2022-09-06T05:38:23.531Z,1015.94
2022-09-06T05:39:23.565Z,1015.96
2022-09-06T05:40:23.493Z,1015.97
2022-09-06T05:41:23.486Z,1016.03
2022-09-06T05:42:23.462Z,1016.07
2022-09-06T05:43:23.445Z,1016.07
2022-09-06T05:44:23.415Z,1016.06
2022-09-06T05:45:23.475Z,1016.04
2022-09-06T05:46:23.418Z,1016.03
2022-09-06T05:47:23.396Z,1015.98
2022-09-06T05:48:23.400Z,1015.99
2022-09-06T05:49:23.357Z,1015.96
2022-09-06T05:50:23.348Z,1015.96
2022-09-06T05:51:23.373Z,1015.95
2022-09-06T05:52:23.323Z,1015.94
2022-09-06T05:53:23.387Z,1015.97
2022-09-06T05:54:23.287Z,1015.98
2022-09-06T05:55:23.280Z,1016.02
2022-09-06T05:56:23.267Z,1016.04
2022-09-06T05:57:23.269Z,1016.04
2022-09-06T05:58:23.294Z,1015.99
2022-09-06T05:59:23.237Z,1016.00
2022-09-06T06:00:23.216Z,1015.99
2022-09-06T06:01:23.257Z,1016.01
2022-09-06T06:02:23.250Z,1015.92
2022-09-06T06:03:23.195Z,1015.94
2022-09-06T06:04:23.168Z,1015.92
2022-09-06T06:05:23.150Z,1016.00
2022-09-06T06:06:23.158Z,1015.98
2022-09-06T06:07:23.128Z,1016.01
2022-09-06T06:08:23.149Z,1016.06
2022-09-06T06:09:23.162Z,1015.99
2022-09-06T06:10:23.129Z,1015.99
2022-09-06T06:11:23.076Z,1016.01
2022-09-06T06:12:23.060Z,1016.00
2022-09-06T06:13:23.039Z,1015.99
2022-09-06T06:14:23.027Z,1015.96
2022-09-06T06:15:23.047Z,1015.93
2022-09-06T06:16:23.102Z,1015.95
2022-09-06T06:17:23.000Z,1015.89
2022-09-06T06:18:23.021Z,1015.93
2022-09-06T06:19:30.022Z,1015.92
2022-09-06T06:20:22.947Z,1015.92
2022-09-06T06:21:23.029Z,1015.91
2022-09-06T06:22:22.918Z,1015.90
2022-09-06T06:23:22.928Z,1015.92
2022-09-06T06:24:22.907Z,1015.90
2022-09-06T06:25:22.886Z,1015.83
2022-09-06T06:26:22.869Z,1015.88
2022-09-06T06:27:22.869Z,1015.80
2022-09-06T06:28:22.965Z,1015.82
2022-09-06T06:29:22.848Z,1015.82
2022-09-06T06:30:22.829Z,1015.81
2022-09-06T06:31:22.972Z,1015.71
2022-09-06T06:32:22.818Z,1015.75
2022-09-06T06:33:22.790Z,1015.68
2022-09-06T06:34:22.786Z,1015.71
2022-09-06T06:35:22.761Z,1015.69
2022-09-06T06:36:22.752Z,1015.67
2022-09-06T06:37:22.728Z,1015.65
2022-09-06T06:38:22.719Z,1015.63
2022-09-06T06:39:22.741Z,1015.61
2022-09-06T06:40:22.681Z,1015.67
2022-09-06T06:41:22.731Z,1015.69
2022-09-06T06:42:22.700Z,1015.64
2022-09-06T06:43:22.640Z,1015.66
2022-09-06T06:44:22.702Z,1015.65
2022-09-06T06:45:22.700Z,1015.74
2022-09-06T06:46:22.663Z,1015.71
2022-09-06T06:47:22.603Z,1015.71
2022-09-06T06:48:22.627Z,1015.70
2022-09-06T06:49:22.612Z,1015.71
2022-09-06T06:50:22.571Z,1015.73
2022-09-06T06:51:22.603Z,1015.76
2022-09-06T06:52:22.521Z,1015.72
2022-09-06T06:53:22.520Z,1015.71
2022-09-06T06:54:22.512Z,1015.72
2022-09-06T06:55:22.656Z,1015.78
2022-09-06T06:56:22.504Z,1015.79
2022-09-06T06:57:22.565Z,1015.80
2022-09-06T06:58:22.534Z,1015.75
2022-09-06T06:59:23.682Z,1015.81
2022-09-06T07:00:26.350Z,1015.79
2022-09-06T07:01:23.843Z,1015.80
2022-09-06T07:02:22.488Z,1015.80
2022-09-06T07:03:22.594Z,1015.76
2022-09-06T07:04:22.421Z,1015.83
2022-09-06T07:07:30.730Z,1015.73
2022-09-06T07:08:23.371Z,1015.74
2022-09-06T07:09:22.304Z,1015.79
2022-09-06T07:10:37.535Z,1015.77
2022-09-06T07:11:24.840Z,1015.73
2022-09-06T07:12:22.264Z,1015.74
2022-09-06T07:13:22.366Z,1015.75
2022-09-06T07:14:22.243Z,1015.70
2022-09-06T07:15:22.233Z,1015.71
2022-09-06T07:16:22.298Z,1015.75
2022-09-06T07:17:22.618Z,1015.74
2022-09-06T07:18:22.187Z,1015.74
2022-09-06T07:20:23.717Z,1015.77
2022-09-06T07:21:38.716Z,1015.74
2022-09-06T07:22:26.548Z,1015.74
2022-09-06T07:24:23.104Z,1015.72
2022-09-06T07:25:22.098Z,1015.72
2022-09-06T07:26:24.624Z,1015.73
2022-09-06T07:28:25.579Z,1015.69
2022-09-06T07:29:23.968Z,1015.67
2022-09-06T07:30:22.028Z,1015.71
2022-09-06T07:32:23.008Z,1015.73
2022-09-06T07:33:22.090Z,1015.70
2022-09-06T07:34:22.023Z,1015.72
2022-09-06T07:35:22.038Z,1015.70
2022-09-06T07:36:21.959Z,1015.66
2022-09-06T07:37:21.978Z,1015.70
2022-09-06T07:38:21.981Z,1015.67
2022-09-06T07:39:21.941Z,1015.70
2022-09-06T07:40:21.897Z,1015.73
2022-09-06T07:41:21.879Z,1015.69
2022-09-06T07:42:21.869Z,1015.70
2022-09-06T07:43:21.870Z,1015.75
2022-09-06T07:44:21.846Z,1015.76
2022-09-06T07:45:21.831Z,1015.76
2022-09-06T07:46:21.881Z,1015.74
2022-09-06T07:48:22.813Z,1015.83
2022-09-06T07:49:21.829Z,1015.81
2022-09-06T07:51:22.920Z,1015.78
2022-09-06T07:53:29.798Z,1015.73
2022-09-06T07:54:31.239Z,1015.75
2022-09-06T07:55:22.703Z,1015.77
2022-09-06T07:56:21.689Z,1015.76
2022-09-06T07:57:21.727Z,1015.82
2022-09-06T07:58:21.668Z,1015.83
2022-09-06T07:59:21.790Z,1015.79
2022-09-06T08:00:21.631Z,1015.80
2022-09-06T08:01:21.666Z,1015.77
2022-09-06T08:02:21.643Z,1015.78
2022-09-06T08:03:21.703Z,1015.69
2022-09-06T08:04:21.602Z,1015.72
2022-09-06T08:06:22.571Z,1015.71
2022-09-06T08:09:22.602Z,1015.68
2022-09-06T08:10:21.576Z,1015.70
2022-09-06T08:11:21.508Z,1015.67
2022-09-06T08:12:21.572Z,1015.58
2022-09-06T08:13:21.486Z,1015.59
2022-09-06T08:14:21.615Z,1015.59
2022-09-06T08:15:21.510Z,1015.56
2022-09-06T08:16:21.469Z,1015.64
2022-09-06T08:17:21.428Z,1015.57
2022-09-06T08:18:21.400Z,1015.61
2022-09-06T08:19:21.382Z,1015.59
2022-09-06T08:20:21.375Z,1015.56
2022-09-06T08:21:21.373Z,1015.55
2022-09-06T08:22:21.395Z,1015.51
2022-09-06T08:23:21.394Z,1015.60
2022-09-06T08:24:21.339Z,1015.61
2022-09-06T08:25:21.304Z,1015.63
2022-09-06T08:26:21.325Z,1015.64
2022-09-06T08:27:21.286Z,1015.59
2022-09-06T08:28:23.574Z,1015.59
2022-09-06T08:29:21.258Z,1015.63
2022-09-06T08:30:21.273Z,1015.59
2022-09-06T08:31:21.271Z,1015.64
2022-09-06T08:32:21.236Z,1015.65
2022-09-06T08:33:21.235Z,1015.55
2022-09-06T08:34:21.196Z,1015.63
2022-09-06T08:35:21.177Z,1015.61
2022-09-06T08:36:21.158Z,1015.65
2022-09-06T08:37:24.913Z,1015.63
2022-09-06T08:38:21.131Z,1015.65
2022-09-06T08:39:21.115Z,1015.68
2022-09-06T08:40:21.157Z,1015.66
2022-09-06T08:41:21.085Z,1015.65
2022-09-06T08:42:21.085Z,1015.65
2022-09-06T08:43:21.108Z,1015.63
2022-09-06T08:45:22.084Z,1015.69
2022-09-06T08:46:21.061Z,1015.71
2022-09-06T08:47:21.031Z,1015.75
2022-09-06T08:48:21.071Z,1015.68
2022-09-06T08:49:21.049Z,1015.64
2022-09-06T08:50:20.989Z,1015.60
2022-09-06T08:51:20.969Z,1015.64
2022-09-06T08:52:20.945Z,1015.63
2022-09-06T08:53:20.928Z,1015.63
2022-09-06T08:54:20.918Z,1015.59
2022-09-06T08:55:20.920Z,1015.64
2022-09-06T08:56:20.898Z,1015.54
2022-09-06T08:57:20.879Z,1015.56
2022-09-06T08:58:20.869Z,1015.52
2022-09-06T08:59:20.888Z,1015.47
2022-09-06T09:00:20.857Z,1015.53
2022-09-06T09:01:20.870Z,1015.47
2022-09-06T09:02:20.922Z,1015.47
2022-09-06T09:03:20.821Z,1015.48
2022-09-06T09:04:20.801Z,1015.48
2022-09-06T09:05:20.803Z,1015.45
2022-09-06T09:06:20.798Z,1015.46
2022-09-06T09:07:20.822Z,1015.45
2022-09-06T09:08:20.819Z,1015.50
2022-09-06T09:09:20.728Z,1015.33
2022-09-06T09:10:20.731Z,1015.36
2022-09-06T09:11:20.690Z,1015.40
2022-09-06T09:12:20.749Z,1015.41
2022-09-06T09:13:21.478Z,1015.39
2022-09-06T09:14:20.681Z,1015.39
2022-09-06T09:15:20.641Z,1015.38
2022-09-06T09:16:20.680Z,1015.37
2022-09-06T09:17:20.622Z,1015.37
2022-09-06T09:18:20.624Z,1015.33
2022-09-06T09:19:20.613Z,1015.32
2022-09-06T09:20:20.624Z,1015.32
2022-09-06T09:21:20.570Z,1015.28
2022-09-06T09:22:20.562Z,1015.31
2022-09-06T09:23:20.554Z,1015.28
2022-09-06T09:24:20.530Z,1015.21
2022-09-06T09:25:20.533Z,1015.18
2022-09-06T09:26:20.503Z,1015.22
2022-09-06T09:27:20.597Z,1015.21
2022-09-06T09:28:20.484Z,1015.20
2022-09-06T09:29:25.302Z,1015.22
2022-09-06T09:31:21.493Z,1015.17
2022-09-06T09:32:20.453Z,1015.09
2022-09-06T09:33:20.414Z,1015.12
2022-09-06T09:34:20.403Z,1015.11
2022-09-06T09:35:20.437Z,1015.13
2022-09-06T09:36:20.433Z,1015.11
2022-09-06T09:38:21.355Z,1015.05
2022-09-06T09:39:20.335Z,1015.07
2022-09-06T09:40:20.334Z,1015.09
2022-09-06T09:41:20.325Z,1015.03
2022-09-06T09:42:20.297Z,1014.96
2022-09-06T09:43:20.288Z,1015.02
2022-09-06T09:44:20.486Z,1015.03
2022-09-06T09:45:20.259Z,1015.01
2022-09-06T09:46:20.275Z,1014.99
2022-09-06T09:47:20.578Z,1014.95
2022-09-06T09:48:20.219Z,1014.96
2022-09-06T09:49:20.206Z,1014.87
2022-09-06T09:50:20.188Z,1014.91
2022-09-06T09:51:26.309Z,1014.85
2022-09-06T09:52:21.178Z,1014.87
2022-09-06T09:53:20.206Z,1014.88
2022-09-06T09:54:20.137Z,1014.76
2022-09-06T09:55:20.129Z,1014.80
2022-09-06T09:56:20.263Z,1014.78
2022-09-06T09:57:20.101Z,1014.75
2022-09-06T09:58:20.100Z,1014.74
2022-09-06T09:59:20.077Z,1014.82
2022-09-06T10:00:20.070Z,1014.78
2022-09-06T10:01:20.058Z,1014.72
2022-09-06T10:02:20.047Z,1014.71
2022-09-06T10:03:20.117Z,1014.72
2022-09-06T10:05:21.021Z,1014.70
2022-09-06T10:07:20.965Z,1014.74
2022-09-06T10:08:19.950Z,1014.60
2022-09-06T10:09:19.949Z,1014.63
2022-09-06T10:10:19.920Z,1014.68
2022-09-06T10:11:19.913Z,1014.63
2022-09-06T10:12:19.912Z,1014.69
2022-09-06T10:13:19.893Z,1014.59
2022-09-06T10:14:19.886Z,1014.59
2022-09-06T10:15:19.882Z,1014.59
2022-09-06T10:16:19.891Z,1014.58
2022-09-06T10:17:19.843Z,1014.63
2022-09-06T10:18:19.834Z,1014.62
2022-09-06T10:19:19.829Z,1014.64
2022-09-06T10:20:19.812Z,1014.65
2022-09-06T10:21:19.822Z,1014.68
2022-09-06T10:22:19.772Z,1014.66
2022-09-06T10:24:28.150Z,1014.68
2022-09-06T10:25:20.768Z,1014.70
2022-09-06T10:26:19.722Z,1014.70
2022-09-06T10:27:19.703Z,1014.63
2022-09-06T10:28:19.716Z,1014.69
2022-09-06T10:29:19.684Z,1014.62
2022-09-06T10:30:19.685Z,1014.72
2022-09-06T10:31:19.788Z,1014.69
2022-09-06T10:32:19.644Z,1014.66
2022-09-06T10:33:19.756Z,1014.63
2022-09-06T10:34:19.622Z,1014.66
2022-09-06T10:35:19.605Z,1014.60
2022-09-06T10:36:19.607Z,1014.58
2022-09-06T10:37:19.667Z,1014.54
2022-09-06T10:38:19.645Z,1014.53
2022-09-06T10:39:19.558Z,1014.47
2022-09-06T10:40:19.566Z,1014.57
2022-09-06T10:41:19.539Z,1014.51
2022-09-06T10:42:19.526Z,1014.50
2022-09-06T10:43:19.498Z,1014.48
2022-09-06T10:44:19.494Z,1014.46
2022-09-06T10:45:19.474Z,1014.48
2022-09-06T10:46:19.509Z,1014.46
2022-09-06T10:47:19.488Z,1014.44
2022-09-06T10:48:19.504Z,1014.49
2022-09-06T10:49:20.447Z,1014.45
2022-09-06T10:50:19.417Z,1014.47
2022-09-06T10:51:19.395Z,1014.42
2022-09-06T10:52:19.410Z,1014.47
2022-09-06T10:53:19.370Z,1014.38
2022-09-06T10:54:19.361Z,1014.39
2022-09-06T10:55:19.393Z,1014.45
2022-09-06T10:56:19.341Z,1014.43
2022-09-06T10:58:20.892Z,1014.35
2022-09-06T11:00:20.288Z,1014.38
2022-09-06T11:01:19.461Z,1014.30
2022-09-06T11:02:19.875Z,1014.31
2022-09-06T11:04:22.781Z,1014.29
2022-09-06T11:06:22.508Z,1014.26
2022-09-06T11:07:19.580Z,1014.23
2022-09-06T11:09:20.733Z,1014.22
2022-09-06T11:10:19.161Z,1014.24
2022-09-06T11:11:19.143Z,1014.23
2022-09-06T11:12:19.474Z,1014.24
2022-09-06T11:13:19.121Z,1014.22
2022-09-06T11:14:19.584Z,1014.22
2022-09-06T11:15:19.440Z,1014.21
2022-09-06T11:16:19.119Z,1014.23
2022-09-06T11:17:19.053Z,1014.21
2022-09-06T11:18:19.083Z,1014.22
2022-09-06T11:19:19.042Z,1014.21
2022-09-06T11:20:19.015Z,1014.18
2022-09-06T11:21:19.672Z,1014.13
2022-09-06T11:22:19.052Z,1014.23
2022-09-06T11:23:18.982Z,1014.20
2022-09-06T11:24:18.993Z,1014.21
2022-09-06T11:25:18.955Z,1014.22
2022-09-06T11:26:19.187Z,1014.25
2022-09-06T11:27:18.936Z,1014.18
2022-09-06T11:28:18.926Z,1014.21
2022-09-06T11:29:18.945Z,1014.12
2022-09-06T11:30:18.896Z,1014.19
2022-09-06T11:32:19.856Z,1014.17
2022-09-06T11:33:18.845Z,1014.18
2022-09-06T11:34:19.586Z,1014.18
2022-09-06T11:35:18.837Z,1014.18
2022-09-06T11:36:18.849Z,1014.19
2022-09-06T11:37:18.800Z,1014.11
2022-09-06T11:38:18.948Z,1014.12
2022-09-06T11:39:18.905Z,1014.15
2022-09-06T11:40:26.802Z,1014.12
2022-09-06T11:41:19.756Z,1014.09
2022-09-06T11:42:18.885Z,1014.11
2022-09-06T11:43:18.727Z,1014.11
2022-09-06T11:44:18.748Z,1014.06
2022-09-06T11:45:18.869Z,1014.07
2022-09-06T11:46:20.589Z,1014.10
2022-09-06T11:47:18.677Z,1014.06
2022-09-06T11:48:18.799Z,1013.99
2022-09-06T11:49:18.662Z,1014.05
2022-09-06T11:50:18.631Z,1013.97
2022-09-06T11:51:18.631Z,1014.02
2022-09-06T11:52:19.412Z,1013.97
2022-09-06T11:53:18.790Z,1013.99
2022-09-06T11:54:18.578Z,1014.02
2022-09-06T11:55:22.254Z,1013.99
2022-09-06T11:56:18.551Z,1014.03
2022-09-06T11:57:18.539Z,1013.95
2022-09-06T11:58:18.521Z,1013.91
2022-09-06T11:59:18.521Z,1013.99
2022-09-06T12:00:18.506Z,1013.98
2022-09-06T12:01:18.490Z,1013.91
2022-09-06T12:02:18.605Z,1013.93
2022-09-06T12:04:19.484Z,1013.97
2022-09-06T12:05:18.441Z,1013.89
2022-09-06T12:06:18.423Z,1013.99
2022-09-06T12:07:18.413Z,1013.94
2022-09-06T12:08:18.401Z,1013.94
2022-09-06T12:09:18.385Z,1013.90
2022-09-06T12:10:18.646Z,1013.86
2022-09-06T12:11:18.368Z,1013.85
2022-09-06T12:12:18.344Z,1013.86
2022-09-06T12:13:18.513Z,1013.83
2022-09-06T12:14:18.304Z,1013.90
2022-09-06T12:15:18.293Z,1013.89
2022-09-06T12:16:18.598Z,1013.83
2022-09-06T12:17:18.580Z,1013.87
2022-09-06T12:18:18.254Z,1013.82
2022-09-06T12:19:18.246Z,1013.85
2022-09-06T12:20:25.345Z,1013.84
2022-09-06T12:21:18.235Z,1013.86
2022-09-06T12:22:18.226Z,1013.81
2022-09-06T12:23:18.216Z,1013.83
2022-09-06T12:24:18.190Z,1013.81
2022-09-06T12:25:18.180Z,1013.83
2022-09-06T12:26:18.188Z,1013.79
2022-09-06T12:27:18.147Z,1013.78
2022-09-06T12:28:18.128Z,1013.82
2022-09-06T12:29:18.116Z,1013.76
2022-09-06T12:30:18.095Z,1013.79